sensor_id;sensor_type;location;lat;lon;timestamp;pressure;altitude;pressure_sealevel;temperature;humidity
52923;BME280;38796;42.702;23.306;2022-10-31T00:00:47;95721.84;;;12.10;64.18
52923;BME280;38796;42.702;23.306;2022-10-31T00:02:45;95721.59;;;12.13;64.63
52923;BME280;38796;42.702;23.306;2022-10-31T00:04:43;95722.69;;;12.11;64.73
52923;BME280;38796;42.702;23.306;2022-10-31T00:06:41;95725.41;;;11.99;65.03
52923;BME280;38796;42.702;23.306;2022-10-31T00:08:39;95727.44;;;11.86;65.51
52923;BME280;38796;42.702;23.306;2022-10-31T00:10:38;95729.44;;;11.73;66.45
52923;BME280;38796;42.702;23.306;2022-10-31T00:12:36;95725.50;;;11.67;66.47
52923;BME280;38796;42.702;23.306;2022-10-31T00:14:38;95730.19;;;11.64;66.65
52923;BME280;38796;42.702;23.306;2022-10-31T00:16:41;95730.25;;;11.73;66.69
52923;BME280;38796;42.702;23.306;2022-10-31T00:18:39;95735.97;;;11.78;66.59
52923;BME280;38796;42.702;23.306;2022-10-31T00:20:38;95736.53;;;11.82;66.95
52923;BME280;38796;42.702;23.306;2022-10-31T00:22:36;95727.72;;;11.72;66.93
52923;BME280;38796;42.702;23.306;2022-10-31T00:24:34;95724.53;;;11.68;67.42
52923;BME280;38796;42.702;23.306;2022-10-31T00:26:33;95722.81;;;11.58;67.58
52923;BME280;38796;42.702;23.306;2022-10-31T00:28:31;95726.94;;;11.50;68.03
52923;BME280;38796;42.702;23.306;2022-10-31T00:30:31;95719.28;;;11.47;68.13
52923;BME280;38796;42.702;23.306;2022-10-31T00:32:29;95716.91;;;11.44;68.05
52923;BME280;38796;42.702;23.306;2022-10-31T00:34:27;95718.06;;;11.51;68.26
52923;BME280;38796;42.702;23.306;2022-10-31T00:36:28;95720.44;;;11.54;68.48
52923;BME280;38796;42.702;23.306;2022-10-31T00:38:26;95710.56;;;11.57;68.06
52923;BME280;38796;42.702;23.306;2022-10-31T00:40:24;95707.50;;;11.51;68.69
52923;BME280;38796;42.702;23.306;2022-10-31T00:42:23;95720.09;;;11.48;68.85
52923;BME280;38796;42.702;23.306;2022-10-31T00:44:21;95719.53;;;11.44;68.80
52923;BME280;38796;42.702;23.306;2022-10-31T00:46:21;95716.06;;;11.44;69.01
52923;BME280;38796;42.702;23.306;2022-10-31T00:48:20;95715.09;;;11.45;68.96
52923;BME280;38796;42.702;23.306;2022-10-31T00:50:18;95719.53;;;11.44;69.22
52923;BME280;38796;42.702;23.306;2022-10-31T00:52:16;95715.53;;;11.50;68.98
52923;BME280;38796;42.702;23.306;2022-10-31T00:54:14;95722.28;;;11.64;68.44
52923;BME280;38796;42.702;23.306;2022-10-31T00:56:13;95719.00;;;11.71;67.97
52923;BME280;38796;42.702;23.306;2022-10-31T00:58:11;95719.00;;;11.71;67.89
52923;BME280;38796;42.702;23.306;2022-10-31T01:00:15;95714.13;;;11.67;67.87
52923;BME280;38796;42.702;23.306;2022-10-31T01:02:16;95721.84;;;11.59;68.27
52923;BME280;38796;42.702;23.306;2022-10-31T01:04:14;95720.88;;;11.60;68.61
52923;BME280;38796;42.702;23.306;2022-10-31T01:06:13;95721.91;;;11.47;69.27
52923;BME280;38796;42.702;23.306;2022-10-31T01:08:11;95730.78;;;11.46;69.35
52923;BME280;38796;42.702;23.306;2022-10-31T01:10:10;95722.16;;;11.44;69.97
52923;BME280;38796;42.702;23.306;2022-10-31T01:12:09;95724.34;;;11.39;69.46
52923;BME280;38796;42.702;23.306;2022-10-31T01:14:09;95726.22;;;11.48;69.69
52923;BME280;38796;42.702;23.306;2022-10-31T01:16:09;95727.94;;;11.38;69.47
52923;BME280;38796;42.702;23.306;2022-10-31T01:18:09;95733.72;;;11.32;70.53
52923;BME280;38796;42.702;23.306;2022-10-31T01:20:09;95731.63;;;11.26;70.70
52923;BME280;38796;42.702;23.306;2022-10-31T01:22:07;95731.13;;;11.21;70.72
52923;BME280;38796;42.702;23.306;2022-10-31T01:24:06;95725.03;;;11.20;70.60
52923;BME280;38796;42.702;23.306;2022-10-31T01:26:09;95735.09;;;11.26;70.74
52923;BME280;38796;42.702;23.306;2022-10-31T01:28:09;95727.69;;;11.41;70.22
52923;BME280;38796;42.702;23.306;2022-10-31T01:30:08;95728.34;;;11.54;69.77
52923;BME280;38796;42.702;23.306;2022-10-31T01:32:06;95734.50;;;11.65;69.37
52923;BME280;38796;42.702;23.306;2022-10-31T01:34:06;95743.06;;;11.78;69.28
52923;BME280;38796;42.702;23.306;2022-10-31T01:36:13;95739.94;;;11.84;68.68
52923;BME280;38796;42.702;23.306;2022-10-31T01:38:12;95736.50;;;11.93;68.15
52923;BME280;38796;42.702;23.306;2022-10-31T01:40:10;95736.69;;;12.01;67.86
52923;BME280;38796;42.702;23.306;2022-10-31T01:42:12;95736.81;;;12.00;68.45
52923;BME280;38796;42.702;23.306;2022-10-31T01:44:49;95735.28;;;11.97;68.42
52923;BME280;38796;42.702;23.306;2022-10-31T01:46:51;95743.31;;;11.96;68.71
52923;BME280;38796;42.702;23.306;2022-10-31T01:48:51;95734.78;;;12.13;67.89
52923;BME280;38796;42.702;23.306;2022-10-31T01:50:54;95738.72;;;12.19;67.34
52923;BME280;38796;42.702;23.306;2022-10-31T01:52:53;95731.91;;;12.26;67.24
52923;BME280;38796;42.702;23.306;2022-10-31T01:54:57;95741.53;;;12.27;67.95
52923;BME280;38796;42.702;23.306;2022-10-31T01:56:58;95738.16;;;12.25;67.23
52923;BME280;38796;42.702;23.306;2022-10-31T01:58:58;95738.16;;;12.15;67.74
52923;BME280;38796;42.702;23.306;2022-10-31T02:00:59;95747.09;;;12.03;68.54
52923;BME280;38796;42.702;23.306;2022-10-31T02:03:03;95730.84;;;11.98;68.51
52923;BME280;38796;42.702;23.306;2022-10-31T02:05:05;95730.69;;;11.99;68.67
52923;BME280;38796;42.702;23.306;2022-10-31T02:07:09;95738.03;;;11.96;68.65
52923;BME280;38796;42.702;23.306;2022-10-31T02:09:08;95730.63;;;11.90;68.61
52923;BME280;38796;42.702;23.306;2022-10-31T02:11:08;95731.63;;;11.89;69.30
52923;BME280;38796;42.702;23.306;2022-10-31T02:13:07;95723.28;;;11.84;69.33
52923;BME280;38796;42.702;23.306;2022-10-31T02:15:13;95728.44;;;11.74;69.70
52923;BME280;38796;42.702;23.306;2022-10-31T02:17:13;95728.13;;;11.67;69.78
52923;BME280;38796;42.702;23.306;2022-10-31T02:19:14;95731.16;;;11.63;69.77
52923;BME280;38796;42.702;23.306;2022-10-31T02:21:19;95733.38;;;11.58;70.07
52923;BME280;38796;42.702;23.306;2022-10-31T02:23:56;95746.16;;;11.62;70.39
52923;BME280;38796;42.702;23.306;2022-10-31T02:26:24;95747.56;;;11.66;69.90
52923;BME280;38796;42.702;23.306;2022-10-31T02:28:42;95747.00;;;11.63;70.28
52923;BME280;38796;42.702;23.306;2022-10-31T02:31:01;95750.53;;;11.52;70.46
52923;BME280;38796;42.702;23.306;2022-10-31T02:33:11;95754.63;;;11.45;70.60
52923;BME280;38796;42.702;23.306;2022-10-31T02:35:19;95752.66;;;11.37;71.02
52923;BME280;38796;42.702;23.306;2022-10-31T02:37:25;95761.63;;;11.35;71.21
52923;BME280;38796;42.702;23.306;2022-10-31T02:39:29;95760.66;;;11.36;71.26
52923;BME280;38796;42.702;23.306;2022-10-31T02:41:40;95757.09;;;11.37;71.16
52923;BME280;38796;42.702;23.306;2022-10-31T02:43:46;95760.41;;;11.39;71.23
52923;BME280;38796;42.702;23.306;2022-10-31T02:45:56;95765.94;;;11.36;71.30
52923;BME280;38796;42.702;23.306;2022-10-31T02:48:02;95774.00;;;11.34;71.52
52923;BME280;38796;42.702;23.306;2022-10-31T02:50:06;95762.28;;;11.27;71.79
52923;BME280;38796;42.702;23.306;2022-10-31T02:52:17;95764.81;;;11.17;72.23
52923;BME280;38796;42.702;23.306;2022-10-31T02:54:22;95763.41;;;11.13;72.43
52923;BME280;38796;42.702;23.306;2022-10-31T02:56:22;95768.34;;;11.06;72.82
52923;BME280;38796;42.702;23.306;2022-10-31T02:58:21;95772.06;;;11.04;72.85
52923;BME280;38796;42.702;23.306;2022-10-31T03:00:22;95770.47;;;11.13;73.24
52923;BME280;38796;42.702;23.306;2022-10-31T03:02:46;95767.69;;;11.14;73.22
52923;BME280;38796;42.702;23.306;2022-10-31T03:07:21;95777.59;;;11.33;71.93
52923;BME280;38796;42.702;23.306;2022-10-31T03:09:25;95772.69;;;11.28;71.88
52923;BME280;38796;42.702;23.306;2022-10-31T03:11:31;95777.91;;;11.19;72.39
52923;BME280;38796;42.702;23.306;2022-10-31T03:13:35;95772.53;;;11.09;72.67
52923;BME280;38796;42.702;23.306;2022-10-31T03:15:39;95778.19;;;11.04;72.75
52923;BME280;38796;42.702;23.306;2022-10-31T03:17:47;95774.38;;;10.97;73.15
52923;BME280;38796;42.702;23.306;2022-10-31T03:19:49;95769.31;;;11.05;73.11
52923;BME280;38796;42.702;23.306;2022-10-31T03:21:55;95769.78;;;10.99;73.31
52923;BME280;38796;42.702;23.306;2022-10-31T03:23:57;95773.66;;;10.95;73.56
52923;BME280;38796;42.702;23.306;2022-10-31T03:26:00;95782.31;;;10.86;74.08
52923;BME280;38796;42.702;23.306;2022-10-31T03:28:02;95777.97;;;10.85;74.32
52923;BME280;38796;42.702;23.306;2022-10-31T03:30:05;95786.75;;;10.74;74.72
52923;BME280;38796;42.702;23.306;2022-10-31T03:32:27;95785.69;;;10.66;74.91
52923;BME280;38796;42.702;23.306;2022-10-31T03:34:28;95789.03;;;10.56;75.09
52923;BME280;38796;42.702;23.306;2022-10-31T03:36:28;95788.81;;;10.48;75.61
52923;BME280;38796;42.702;23.306;2022-10-31T03:38:29;95793.63;;;10.43;76.18
52923;BME280;38796;42.702;23.306;2022-10-31T03:40:32;95790.03;;;10.44;76.27
52923;BME280;38796;42.702;23.306;2022-10-31T03:42:33;95793.63;;;10.43;76.46
52923;BME280;38796;42.702;23.306;2022-10-31T03:44:33;95793.13;;;10.49;76.23
52923;BME280;38796;42.702;23.306;2022-10-31T03:46:32;95800.66;;;10.54;76.55
52923;BME280;38796;42.702;23.306;2022-10-31T03:48:31;95799.72;;;10.44;76.67
52923;BME280;38796;42.702;23.306;2022-10-31T03:50:37;95801.53;;;10.32;77.03
52923;BME280;38796;42.702;23.306;2022-10-31T03:52:41;95805.88;;;10.20;77.79
52923;BME280;38796;42.702;23.306;2022-10-31T03:54:44;95805.88;;;10.09;78.11
52923;BME280;38796;42.702;23.306;2022-10-31T03:56:49;95807.44;;;10.00;78.82
52923;BME280;38796;42.702;23.306;2022-10-31T03:58:58;95810.19;;;9.99;79.01
52923;BME280;38796;42.702;23.306;2022-10-31T04:01:00;95820.09;;;9.95;79.18
52923;BME280;38796;42.702;23.306;2022-10-31T04:03:08;95806.59;;;9.89;79.71
52923;BME280;38796;42.702;23.306;2022-10-31T04:05:11;95813.28;;;9.93;80.11
52923;BME280;38796;42.702;23.306;2022-10-31T04:07:13;95814.59;;;9.98;79.96
52923;BME280;38796;42.702;23.306;2022-10-31T04:09:13;95812.09;;;9.97;80.01
52923;BME280;38796;42.702;23.306;2022-10-31T04:11:16;95816.75;;;9.93;80.44
52923;BME280;38796;42.702;23.306;2022-10-31T04:13:26;95816.41;;;9.98;80.32
52923;BME280;38796;42.702;23.306;2022-10-31T04:15:41;95818.56;;;10.04;80.07
52923;BME280;38796;42.702;23.306;2022-10-31T04:17:42;95822.88;;;10.16;80.12
52923;BME280;38796;42.702;23.306;2022-10-31T04:19:43;95815.16;;;10.37;79.74
52923;BME280;38796;42.702;23.306;2022-10-31T04:21:42;95816.72;;;10.51;78.46
52923;BME280;38796;42.702;23.306;2022-10-31T04:23:41;95809.03;;;10.59;78.63
52923;BME280;38796;42.702;23.306;2022-10-31T04:25:47;95826.03;;;10.66;77.86
52923;BME280;38796;42.702;23.306;2022-10-31T04:27:48;95816.09;;;10.70;77.88
52923;BME280;38796;42.702;23.306;2022-10-31T04:29:46;95815.72;;;10.63;77.78
52923;BME280;38796;42.702;23.306;2022-10-31T04:31:47;95824.25;;;10.55;78.09
52923;BME280;38796;42.702;23.306;2022-10-31T04:33:46;95820.91;;;10.53;78.18
52923;BME280;38796;42.702;23.306;2022-10-31T04:35:44;95823.03;;;10.48;78.35
52923;BME280;38796;42.702;23.306;2022-10-31T04:37:43;95825.69;;;10.48;78.50
52923;BME280;38796;42.702;23.306;2022-10-31T04:39:42;95815.13;;;10.59;78.52
52923;BME280;38796;42.702;23.306;2022-10-31T04:41:59;95819.56;;;10.59;78.16
52923;BME280;38796;42.702;23.306;2022-10-31T04:43:59;95821.22;;;10.60;77.95
52923;BME280;38796;42.702;23.306;2022-10-31T04:45:57;95827.38;;;10.61;78.05
52923;BME280;38796;42.702;23.306;2022-10-31T04:47:56;95821.50;;;10.57;78.46
52923;BME280;38796;42.702;23.306;2022-10-31T04:49:54;95826.25;;;10.63;78.36
52923;BME280;38796;42.702;23.306;2022-10-31T04:51:53;95828.28;;;10.59;78.16
52923;BME280;38796;42.702;23.306;2022-10-31T04:53:51;95823.53;;;10.53;78.28
52923;BME280;38796;42.702;23.306;2022-10-31T04:55:59;95827.34;;;10.49;78.73
52923;BME280;38796;42.702;23.306;2022-10-31T04:58:05;95840.78;;;10.46;79.33
52923;BME280;38796;42.702;23.306;2022-10-31T05:00:07;95848.66;;;10.46;79.54
52923;BME280;38796;42.702;23.306;2022-10-31T05:02:05;95845.78;;;10.49;79.53
52923;BME280;38796;42.702;23.306;2022-10-31T05:04:30;95846.88;;;10.58;79.40
52923;BME280;38796;42.702;23.306;2022-10-31T05:06:28;95841.59;;;10.58;78.99
52923;BME280;38796;42.702;23.306;2022-10-31T05:08:27;95844.59;;;10.53;79.17
52923;BME280;38796;42.702;23.306;2022-10-31T05:10:27;95848.06;;;10.54;79.11
52923;BME280;38796;42.702;23.306;2022-10-31T05:12:28;95854.41;;;10.51;79.19
52923;BME280;38796;42.702;23.306;2022-10-31T05:14:35;95849.97;;;10.52;79.12
52923;BME280;38796;42.702;23.306;2022-10-31T05:17:10;95847.09;;;10.55;79.42
52923;BME280;38796;42.702;23.306;2022-10-31T05:19:27;95853.56;;;10.62;79.03
52923;BME280;38796;42.702;23.306;2022-10-31T05:21:44;95850.81;;;10.75;77.94
52923;BME280;38796;42.702;23.306;2022-10-31T05:23:43;95856.69;;;10.78;77.83
52923;BME280;38796;42.702;23.306;2022-10-31T05:25:44;95856.91;;;10.75;77.94
52923;BME280;38796;42.702;23.306;2022-10-31T05:27:44;95860.84;;;10.81;78.53
52923;BME280;38796;42.702;23.306;2022-10-31T05:29:43;95856.09;;;10.75;78.06
52923;BME280;38796;42.702;23.306;2022-10-31T05:31:41;95863.25;;;10.62;78.71
52923;BME280;38796;42.702;23.306;2022-10-31T05:33:53;95870.94;;;10.53;78.62
52923;BME280;38796;42.702;23.306;2022-10-31T05:35:52;95875.69;;;10.48;78.93
52923;BME280;38796;42.702;23.306;2022-10-31T05:38:11;95882.91;;;10.46;79.15
52923;BME280;38796;42.702;23.306;2022-10-31T05:40:11;95880.72;;;10.51;79.13
52923;BME280;38796;42.702;23.306;2022-10-31T05:42:10;95874.50;;;10.64;78.45
52923;BME280;38796;42.702;23.306;2022-10-31T05:44:09;95869.47;;;10.94;77.73
52923;BME280;38796;42.702;23.306;2022-10-31T05:46:26;95868.78;;;12.21;73.85
52923;BME280;38796;42.702;23.306;2022-10-31T05:48:51;95866.78;;;13.45;68.39
52923;BME280;38796;42.702;23.306;2022-10-31T05:51:13;95865.69;;;15.28;61.92
52923;BME280;38796;42.702;23.306;2022-10-31T05:53:12;95859.72;;;16.15;58.14
52923;BME280;38796;42.702;23.306;2022-10-31T05:55:10;95862.72;;;16.90;55.47
52923;BME280;38796;42.702;23.306;2022-10-31T05:57:16;95860.19;;;17.23;53.74
52923;BME280;38796;42.702;23.306;2022-10-31T05:59:15;95869.06;;;17.90;51.95
52923;BME280;38796;42.702;23.306;2022-10-31T06:01:13;95868.69;;;17.77;51.53
52923;BME280;38796;42.702;23.306;2022-10-31T06:03:14;95860.16;;;17.73;51.96
52923;BME280;38796;42.702;23.306;2022-10-31T06:05:25;95876.56;;;18.19;50.43
52923;BME280;38796;42.702;23.306;2022-10-31T06:07:25;95880.56;;;18.23;50.17
52923;BME280;38796;42.702;23.306;2022-10-31T06:09:24;95880.22;;;18.51;49.37
52923;BME280;38796;42.702;23.306;2022-10-31T06:11:23;95873.00;;;18.92;47.83
52923;BME280;38796;42.702;23.306;2022-10-31T06:13:33;95884.22;;;17.90;50.24
52923;BME280;38796;42.702;23.306;2022-10-31T06:15:43;95883.88;;;18.01;50.44
52923;BME280;38796;42.702;23.306;2022-10-31T06:17:42;95887.53;;;18.90;48.09
52923;BME280;38796;42.702;23.306;2022-10-31T06:19:55;95890.88;;;19.31;46.91
52923;BME280;38796;42.702;23.306;2022-10-31T06:21:55;95893.88;;;19.28;47.01
52923;BME280;38796;42.702;23.306;2022-10-31T06:23:55;95896.47;;;19.53;46.51
52923;BME280;38796;42.702;23.306;2022-10-31T06:26:19;95900.88;;;20.23;44.76
52923;BME280;38796;42.702;23.306;2022-10-31T06:28:19;95896.38;;;20.00;44.70
52923;BME280;38796;42.702;23.306;2022-10-31T06:30:41;95906.31;;;19.52;46.11
52923;BME280;38796;42.702;23.306;2022-10-31T06:32:40;95904.50;;;20.30;43.98
52923;BME280;38796;42.702;23.306;2022-10-31T06:34:39;95902.25;;;20.19;43.98
52923;BME280;38796;42.702;23.306;2022-10-31T06:36:38;95909.44;;;20.41;43.70
52923;BME280;38796;42.702;23.306;2022-10-31T06:38:37;95904.63;;;20.36;43.66
52923;BME280;38796;42.702;23.306;2022-10-31T06:40:39;95909.03;;;21.05;42.24
52923;BME280;38796;42.702;23.306;2022-10-31T06:43:04;95911.91;;;21.03;42.16
52923;BME280;38796;42.702;23.306;2022-10-31T06:45:04;95908.13;;;20.37;43.75
52923;BME280;38796;42.702;23.306;2022-10-31T06:47:32;95909.63;;;20.16;44.17
52923;BME280;38796;42.702;23.306;2022-10-31T06:49:46;95916.59;;;19.72;44.68
52923;BME280;38796;42.702;23.306;2022-10-31T06:51:47;95907.81;;;19.86;44.66
52923;BME280;38796;42.702;23.306;2022-10-31T06:53:46;95915.88;;;18.66;47.45
52923;BME280;38796;42.702;23.306;2022-10-31T06:55:47;95917.88;;;18.07;49.01
52923;BME280;38796;42.702;23.306;2022-10-31T06:57:49;95917.13;;;16.96;52.25
52923;BME280;38796;42.702;23.306;2022-10-31T06:59:48;95920.22;;;16.03;54.58
52923;BME280;38796;42.702;23.306;2022-10-31T07:02:12;95925.47;;;15.50;57.39
52923;BME280;38796;42.702;23.306;2022-10-31T07:04:12;95927.91;;;15.06;59.06
52923;BME280;38796;42.702;23.306;2022-10-31T07:06:11;95926.47;;;14.84;60.06
52923;BME280;38796;42.702;23.306;2022-10-31T07:08:10;95926.09;;;15.06;59.85
52923;BME280;38796;42.702;23.306;2022-10-31T07:10:09;95924.78;;;15.20;59.22
52923;BME280;38796;42.702;23.306;2022-10-31T07:12:28;95925.63;;;15.11;59.26
52923;BME280;38796;42.702;23.306;2022-10-31T07:14:27;95930.75;;;14.95;59.96
52923;BME280;38796;42.702;23.306;2022-10-31T07:16:26;95925.75;;;14.82;60.62
52923;BME280;38796;42.702;23.306;2022-10-31T07:18:24;95917.34;;;14.96;60.64
52923;BME280;38796;42.702;23.306;2022-10-31T07:20:23;95916.81;;;15.20;59.95
52923;BME280;38796;42.702;23.306;2022-10-31T07:22:21;95921.03;;;15.13;59.82
52923;BME280;38796;42.702;23.306;2022-10-31T07:24:20;95913.91;;;15.13;60.14
52923;BME280;38796;42.702;23.306;2022-10-31T07:26:37;95905.91;;;15.23;59.57
52923;BME280;38796;42.702;23.306;2022-10-31T07:28:36;95902.50;;;15.03;61.11
52923;BME280;38796;42.702;23.306;2022-10-31T07:30:36;95895.75;;;15.64;59.27
52923;BME280;38796;42.702;23.306;2022-10-31T07:32:38;95894.41;;;16.57;56.82
52923;BME280;38796;42.702;23.306;2022-10-31T07:34:37;95899.16;;;17.74;53.53
52923;BME280;38796;42.702;23.306;2022-10-31T07:36:57;95894.16;;;19.02;50.18
52923;BME280;38796;42.702;23.306;2022-10-31T07:38:56;95892.22;;;20.21;46.96
52923;BME280;38796;42.702;23.306;2022-10-31T07:40:55;95881.16;;;21.14;44.75
52923;BME280;38796;42.702;23.306;2022-10-31T07:42:54;95882.75;;;22.11;42.66
52923;BME280;38796;42.702;23.306;2022-10-31T07:45:20;95886.31;;;23.10;39.69
52923;BME280;38796;42.702;23.306;2022-10-31T07:47:38;95896.63;;;23.41;39.20
52923;BME280;38796;42.702;23.306;2022-10-31T07:49:55;95885.53;;;24.06;37.72
52923;BME280;38796;42.702;23.306;2022-10-31T07:52:12;95877.94;;;24.49;36.77
52923;BME280;38796;42.702;23.306;2022-10-31T07:54:29;95870.28;;;24.92;35.83
52923;BME280;38796;42.702;23.306;2022-10-31T07:56:28;95882.00;;;24.18;36.93
52923;BME280;38796;42.702;23.306;2022-10-31T07:58:26;95883.22;;;24.03;37.85
52923;BME280;38796;42.702;23.306;2022-10-31T08:00:30;95883.31;;;24.42;37.00
52923;BME280;38796;42.702;23.306;2022-10-31T08:02:28;95880.34;;;24.11;37.56
52923;BME280;38796;42.702;23.306;2022-10-31T08:05:08;95883.28;;;24.36;36.81
52923;BME280;38796;42.702;23.306;2022-10-31T08:07:25;95883.78;;;23.85;38.13
52923;BME280;38796;42.702;23.306;2022-10-31T08:09:29;95887.81;;;24.22;37.48
52923;BME280;38796;42.702;23.306;2022-10-31T08:11:32;95892.19;;;24.36;37.32
52923;BME280;38796;42.702;23.306;2022-10-31T08:13:31;95886.19;;;25.21;35.54
52923;BME280;38796;42.702;23.306;2022-10-31T08:15:31;95888.66;;;26.32;33.39
52923;BME280;38796;42.702;23.306;2022-10-31T08:17:37;95891.31;;;26.70;32.84
52923;BME280;38796;42.702;23.306;2022-10-31T08:19:39;95884.56;;;27.29;31.63
52923;BME280;38796;42.702;23.306;2022-10-31T08:21:41;95893.19;;;26.95;32.10
52923;BME280;38796;42.702;23.306;2022-10-31T08:23:42;95888.22;;;26.35;33.29
52923;BME280;38796;42.702;23.306;2022-10-31T08:25:40;95894.16;;;26.75;32.66
52923;BME280;38796;42.702;23.306;2022-10-31T08:27:39;95885.34;;;26.87;32.75
52923;BME280;38796;42.702;23.306;2022-10-31T08:29:45;95879.91;;;26.68;33.07
52923;BME280;38796;42.702;23.306;2022-10-31T08:31:47;95882.91;;;25.83;34.60
52923;BME280;38796;42.702;23.306;2022-10-31T08:34:04;95884.59;;;26.54;33.68
52923;BME280;38796;42.702;23.306;2022-10-31T08:36:11;95879.34;;;26.59;33.50
52923;BME280;38796;42.702;23.306;2022-10-31T08:38:34;95879.69;;;26.70;33.56
52923;BME280;38796;42.702;23.306;2022-10-31T08:40:33;95880.69;;;26.44;34.04
52923;BME280;38796;42.702;23.306;2022-10-31T08:42:32;95874.84;;;25.70;35.28
52923;BME280;38796;42.702;23.306;2022-10-31T08:44:31;95866.56;;;26.42;34.20
52923;BME280;38796;42.702;23.306;2022-10-31T08:46:29;95876.03;;;25.87;34.93
52923;BME280;38796;42.702;23.306;2022-10-31T08:48:30;95872.41;;;26.39;34.13
52923;BME280;38796;42.702;23.306;2022-10-31T08:50:31;95875.06;;;26.13;34.50
52923;BME280;38796;42.702;23.306;2022-10-31T08:52:30;95878.97;;;26.56;33.88
52923;BME280;38796;42.702;23.306;2022-10-31T08:54:49;95873.66;;;27.36;32.25
52923;BME280;38796;42.702;23.306;2022-10-31T08:57:06;95874.91;;;26.90;33.11
52923;BME280;38796;42.702;23.306;2022-10-31T08:59:09;95868.53;;;28.01;31.23
52923;BME280;38796;42.702;23.306;2022-10-31T09:01:43;95867.44;;;28.21;30.85
52923;BME280;38796;42.702;23.306;2022-10-31T09:03:45;95876.47;;;27.85;31.70
52923;BME280;38796;42.702;23.306;2022-10-31T09:05:43;95876.91;;;27.82;31.66
52923;BME280;38796;42.702;23.306;2022-10-31T09:07:42;95881.72;;;27.24;32.67
52923;BME280;38796;42.702;23.306;2022-10-31T09:09:41;95878.25;;;27.36;32.39
52923;BME280;38796;42.702;23.306;2022-10-31T09:11:41;95873.91;;;27.53;32.23
52923;BME280;38796;42.702;23.306;2022-10-31T09:13:39;95868.09;;;27.68;32.31
52923;BME280;38796;42.702;23.306;2022-10-31T09:16:15;95871.34;;;27.58;31.97
52923;BME280;38796;42.702;23.306;2022-10-31T09:18:16;95863.91;;;28.62;30.43
52923;BME280;38796;42.702;23.306;2022-10-31T09:20:29;95862.56;;;28.11;31.39
52923;BME280;38796;42.702;23.306;2022-10-31T09:22:28;95868.25;;;28.21;31.32
52923;BME280;38796;42.702;23.306;2022-10-31T09:24:26;95859.19;;;28.58;31.24
52923;BME280;38796;42.702;23.306;2022-10-31T09:26:25;95853.69;;;29.35;30.02
52923;BME280;38796;42.702;23.306;2022-10-31T09:28:33;95854.09;;;29.79;29.36
52923;BME280;38796;42.702;23.306;2022-10-31T09:30:38;95844.78;;;30.15;28.46
52923;BME280;38796;42.702;23.306;2022-10-31T09:32:36;95854.53;;;30.28;28.41
52923;BME280;38796;42.702;23.306;2022-10-31T09:34:35;95859.44;;;30.93;27.27
52923;BME280;38796;42.702;23.306;2022-10-31T09:36:41;95851.19;;;30.71;27.73
52923;BME280;38796;42.702;23.306;2022-10-31T09:38:54;95854.41;;;30.68;27.99
52923;BME280;38796;42.702;23.306;2022-10-31T09:40:57;95856.50;;;30.78;27.66
52923;BME280;38796;42.702;23.306;2022-10-31T09:43:10;95856.56;;;30.66;27.62
52923;BME280;38796;42.702;23.306;2022-10-31T09:45:15;95849.16;;;30.33;27.79
52923;BME280;38796;42.702;23.306;2022-10-31T09:47:20;95847.44;;;29.98;28.51
52923;BME280;38796;42.702;23.306;2022-10-31T09:49:58;95844.34;;;30.52;27.77
52923;BME280;38796;42.702;23.306;2022-10-31T09:52:04;95847.97;;;31.64;26.57
52923;BME280;38796;42.702;23.306;2022-10-31T09:54:17;95849.03;;;31.63;26.59
52923;BME280;38796;42.702;23.306;2022-10-31T09:56:21;95845.47;;;31.84;26.42
52923;BME280;38796;42.702;23.306;2022-10-31T09:58:26;95844.63;;;31.78;26.17
52923;BME280;38796;42.702;23.306;2022-10-31T10:00:25;95848.66;;;30.98;26.92
52923;BME280;38796;42.702;23.306;2022-10-31T10:02:27;95838.13;;;30.85;26.98
52923;BME280;38796;42.702;23.306;2022-10-31T10:04:32;95847.63;;;30.08;28.53
52923;BME280;38796;42.702;23.306;2022-10-31T10:06:48;95839.53;;;30.87;27.12
52923;BME280;38796;42.702;23.306;2022-10-31T10:09:09;95823.53;;;31.69;26.11
52923;BME280;38796;42.702;23.306;2022-10-31T10:11:37;95827.97;;;31.31;26.83
52923;BME280;38796;42.702;23.306;2022-10-31T10:13:55;95823.34;;;32.84;24.20
52923;BME280;38796;42.702;23.306;2022-10-31T10:16:07;95819.84;;;31.80;25.95
52923;BME280;38796;42.702;23.306;2022-10-31T10:18:15;95823.03;;;31.72;26.15
52923;BME280;38796;42.702;23.306;2022-10-31T10:20:24;95808.88;;;32.46;25.04
52923;BME280;38796;42.702;23.306;2022-10-31T10:22:31;95820.50;;;31.43;26.01
52923;BME280;38796;42.702;23.306;2022-10-31T10:24:43;95818.72;;;31.32;26.06
52923;BME280;38796;42.702;23.306;2022-10-31T10:26:52;95808.00;;;31.08;26.22
52923;BME280;38796;42.702;23.306;2022-10-31T10:28:57;95806.84;;;31.60;26.00
52923;BME280;38796;42.702;23.306;2022-10-31T10:31:02;95800.88;;;32.12;25.03
52923;BME280;38796;42.702;23.306;2022-10-31T10:33:07;95798.13;;;31.85;24.92
52923;BME280;38796;42.702;23.306;2022-10-31T10:35:17;95796.09;;;32.89;24.13
52923;BME280;38796;42.702;23.306;2022-10-31T10:37:24;95786.78;;;32.80;23.93
52923;BME280;38796;42.702;23.306;2022-10-31T10:39:27;95794.09;;;31.66;25.55
52923;BME280;38796;42.702;23.306;2022-10-31T10:41:32;95786.66;;;31.83;25.49
52923;BME280;38796;42.702;23.306;2022-10-31T10:43:33;95781.19;;;31.56;25.30
52923;BME280;38796;42.702;23.306;2022-10-31T10:45:31;95780.59;;;29.28;28.25
52923;BME280;38796;42.702;23.306;2022-10-31T10:47:52;95780.44;;;27.75;30.56
52923;BME280;38796;42.702;23.306;2022-10-31T10:49:59;95786.41;;;26.67;32.80
52923;BME280;38796;42.702;23.306;2022-10-31T10:52:02;95779.56;;;25.90;34.00
52923;BME280;38796;42.702;23.306;2022-10-31T10:54:41;95777.81;;;25.05;35.48